Liddieville, Louisiana
Current Conditions -  °F | °C
As of 10:12 AM on Sunday 28 Dec 2014 (Local Time) from KMLU Reporting Station
Light Rain Light Rain  
Wind Chill: 40°   Ceiling: 1100
Heat Index: 44°   Visibility: 10mi
Dew Point: 42°   Wind: 7mph
Humidity: 93%   Direction: 20°NNE
Pressure: 30.23"   Gusts: NA
Location:  32.1434°N, 91.7026°W
Report Text: KMLU 281612Z AUTO 02006KT 10SM -RA OVC011 07/06 A3023 RMK AO2 P0001 T00670056 $
Loading
Personal Weather Stations






























Interactive Weather Map New forecast layout! Learn more

10-Day Weather Forecast

Advertisements
Track Severe Weather on mobile